sensor_id;sensor_type;location;lat;lon;timestamp;P1;durP1;ratioP1;P2;durP2;ratioP2
46729;SDS011;32476;50.002;11.854;2024-02-14T00:00:04;7.10;;;2.87;;
46729;SDS011;32476;50.002;11.854;2024-02-14T00:02:31;6.57;;;3.03;;
46729;SDS011;32476;50.002;11.854;2024-02-14T00:04:56;5.67;;;2.80;;
46729;SDS011;32476;50.002;11.854;2024-02-14T00:07:24;6.57;;;3.07;;
46729;SDS011;32476;50.002;11.854;2024-02-14T00:09:52;4.90;;;3.30;;
46729;SDS011;32476;50.002;11.854;2024-02-14T00:12:18;7.87;;;3.53;;
46729;SDS011;32476;50.002;11.854;2024-02-14T00:14:46;4.50;;;2.77;;
46729;SDS011;32476;50.002;11.854;2024-02-14T00:17:11;8.10;;;3.07;;
46729;SDS011;32476;50.002;11.854;2024-02-14T00:19:37;5.57;;;3.20;;
46729;SDS011;32476;50.002;11.854;2024-02-14T00:22:05;4.13;;;2.83;;
46729;SDS011;32476;50.002;11.854;2024-02-14T00:24:31;7.43;;;2.63;;
46729;SDS011;32476;50.002;11.854;2024-02-14T00:26:57;7.10;;;3.10;;
46729;SDS011;32476;50.002;11.854;2024-02-14T00:29:27;5.57;;;2.70;;
46729;SDS011;32476;50.002;11.854;2024-02-14T00:31:52;5.57;;;2.73;;
46729;SDS011;32476;50.002;11.854;2024-02-14T00:34:18;8.20;;;2.80;;
46729;SDS011;32476;50.002;11.854;2024-02-14T00:36:46;7.73;;;2.90;;
46729;SDS011;32476;50.002;11.854;2024-02-14T00:39:12;3.87;;;2.53;;
46729;SDS011;32476;50.002;11.854;2024-02-14T00:41:38;6.10;;;2.50;;
46729;SDS011;32476;50.002;11.854;2024-02-14T00:44:05;5.27;;;2.60;;
46729;SDS011;32476;50.002;11.854;2024-02-14T00:46:31;7.50;;;3.10;;
46729;SDS011;32476;50.002;11.854;2024-02-14T00:48:57;6.23;;;2.90;;
46729;SDS011;32476;50.002;11.854;2024-02-14T00:51:26;5.60;;;2.97;;
46729;SDS011;32476;50.002;11.854;2024-02-14T00:53:52;7.27;;;2.77;;
46729;SDS011;32476;50.002;11.854;2024-02-14T00:56:18;4.47;;;2.70;;
46729;SDS011;32476;50.002;11.854;2024-02-14T00:58:45;6.17;;;2.37;;
46729;SDS011;32476;50.002;11.854;2024-02-14T01:01:11;8.20;;;3.00;;
46729;SDS011;32476;50.002;11.854;2024-02-14T01:03:37;3.60;;;2.50;;
46729;SDS011;32476;50.002;11.854;2024-02-14T01:06:05;6.03;;;2.87;;
46729;SDS011;32476;50.002;11.854;2024-02-14T01:08:30;6.07;;;2.83;;
46729;SDS011;32476;50.002;11.854;2024-02-14T01:10:56;3.77;;;2.30;;
46729;SDS011;32476;50.002;11.854;2024-02-14T01:13:24;6.97;;;2.43;;
46729;SDS011;32476;50.002;11.854;2024-02-14T01:15:49;7.53;;;2.67;;
46729;SDS011;32476;50.002;11.854;2024-02-14T01:18:15;4.93;;;2.60;;
46729;SDS011;32476;50.002;11.854;2024-02-14T01:20:43;5.13;;;2.40;;
46729;SDS011;32476;50.002;11.854;2024-02-14T01:23:09;5.77;;;2.60;;
46729;SDS011;32476;50.002;11.854;2024-02-14T01:25:35;4.90;;;2.40;;
46729;SDS011;32476;50.002;11.854;2024-02-14T01:28:02;6.00;;;2.40;;
46729;SDS011;32476;50.002;11.854;2024-02-14T01:30:30;7.33;;;2.73;;
46729;SDS011;32476;50.002;11.854;2024-02-14T01:32:56;5.07;;;2.37;;
46729;SDS011;32476;50.002;11.854;2024-02-14T01:35:23;5.07;;;2.50;;
46729;SDS011;32476;50.002;11.854;2024-02-14T01:37:50;4.80;;;2.57;;
46729;SDS011;32476;50.002;11.854;2024-02-14T01:40:17;5.67;;;2.90;;
46729;SDS011;32476;50.002;11.854;2024-02-14T01:42:45;7.30;;;2.63;;
46729;SDS011;32476;50.002;11.854;2024-02-14T01:45:11;3.80;;;2.40;;
46729;SDS011;32476;50.002;11.854;2024-02-14T01:47:37;4.57;;;2.50;;
46729;SDS011;32476;50.002;11.854;2024-02-14T01:50:06;4.30;;;1.97;;
46729;SDS011;32476;50.002;11.854;2024-02-14T01:52:37;5.50;;;2.30;;
46729;SDS011;32476;50.002;11.854;2024-02-14T01:55:07;6.47;;;2.63;;
46729;SDS011;32476;50.002;11.854;2024-02-14T01:57:34;3.93;;;2.20;;
46729;SDS011;32476;50.002;11.854;2024-02-14T02:00:02;6.00;;;2.30;;
46729;SDS011;32476;50.002;11.854;2024-02-14T02:02:35;6.20;;;2.60;;
46729;SDS011;32476;50.002;11.854;2024-02-14T02:05:05;4.03;;;2.17;;
46729;SDS011;32476;50.002;11.854;2024-02-14T02:07:32;2.93;;;2.10;;
46729;SDS011;32476;50.002;11.854;2024-02-14T02:09:59;4.97;;;2.30;;
46729;SDS011;32476;50.002;11.854;2024-02-14T02:12:26;3.90;;;1.90;;
46729;SDS011;32476;50.002;11.854;2024-02-14T02:14:53;3.07;;;1.70;;
46729;SDS011;32476;50.002;11.854;2024-02-14T02:17:20;5.60;;;1.97;;
46729;SDS011;32476;50.002;11.854;2024-02-14T02:19:46;2.10;;;1.63;;
46729;SDS011;32476;50.002;11.854;2024-02-14T02:22:12;7.10;;;1.73;;
46729;SDS011;32476;50.002;11.854;2024-02-14T02:24:40;5.63;;;1.80;;
46729;SDS011;32476;50.002;11.854;2024-02-14T02:27:06;2.77;;;1.83;;
46729;SDS011;32476;50.002;11.854;2024-02-14T02:29:32;4.70;;;2.03;;
46729;SDS011;32476;50.002;11.854;2024-02-14T02:31:59;5.00;;;1.80;;
46729;SDS011;32476;50.002;11.854;2024-02-14T02:34:25;3.83;;;2.13;;
46729;SDS011;32476;50.002;11.854;2024-02-14T02:36:51;4.50;;;1.70;;
46729;SDS011;32476;50.002;11.854;2024-02-14T02:39:18;5.03;;;1.73;;
46729;SDS011;32476;50.002;11.854;2024-02-14T02:41:44;6.93;;;1.97;;
46729;SDS011;32476;50.002;11.854;2024-02-14T02:44:12;5.13;;;1.83;;
46729;SDS011;32476;50.002;11.854;2024-02-14T02:46:40;4.50;;;1.60;;
46729;SDS011;32476;50.002;11.854;2024-02-14T02:49:06;7.47;;;2.00;;
46729;SDS011;32476;50.002;11.854;2024-02-14T02:51:32;4.00;;;1.80;;
46729;SDS011;32476;50.002;11.854;2024-02-14T02:54:00;4.93;;;2.00;;
46729;SDS011;32476;50.002;11.854;2024-02-14T02:56:26;5.90;;;1.50;;
46729;SDS011;32476;50.002;11.854;2024-02-14T02:58:54;5.30;;;2.10;;
46729;SDS011;32476;50.002;11.854;2024-02-14T03:01:24;6.00;;;1.67;;
46729;SDS011;32476;50.002;11.854;2024-02-14T03:03:55;4.43;;;1.80;;
46729;SDS011;32476;50.002;11.854;2024-02-14T03:06:21;3.97;;;1.50;;
46729;SDS011;32476;50.002;11.854;2024-02-14T03:08:49;6.70;;;2.43;;
46729;SDS011;32476;50.002;11.854;2024-02-14T03:11:17;8.70;;;2.03;;
46729;SDS011;32476;50.002;11.854;2024-02-14T03:13:43;4.10;;;2.30;;
46729;SDS011;32476;50.002;11.854;2024-02-14T03:16:10;5.97;;;2.47;;
46729;SDS011;32476;50.002;11.854;2024-02-14T03:18:36;4.47;;;2.03;;
46729;SDS011;32476;50.002;11.854;2024-02-14T03:21:04;6.13;;;1.97;;
46729;SDS011;32476;50.002;11.854;2024-02-14T03:23:33;3.40;;;2.13;;
46729;SDS011;32476;50.002;11.854;2024-02-14T03:25:59;3.70;;;1.70;;
46729;SDS011;32476;50.002;11.854;2024-02-14T03:28:25;6.13;;;1.90;;
46729;SDS011;32476;50.002;11.854;2024-02-14T03:30:52;4.70;;;1.90;;
46729;SDS011;32476;50.002;11.854;2024-02-14T03:33:18;3.03;;;1.50;;
46729;SDS011;32476;50.002;11.854;2024-02-14T03:35:45;5.10;;;1.80;;
46729;SDS011;32476;50.002;11.854;2024-02-14T03:38:13;6.33;;;1.73;;
46729;SDS011;32476;50.002;11.854;2024-02-14T03:40:58;3.70;;;1.60;;
46729;SDS011;32476;50.002;11.854;2024-02-14T03:43:25;4.90;;;1.80;;
46729;SDS011;32476;50.002;11.854;2024-02-14T03:45:51;7.13;;;1.90;;
46729;SDS011;32476;50.002;11.854;2024-02-14T03:48:17;4.67;;;2.17;;
46729;SDS011;32476;50.002;11.854;2024-02-14T03:50:44;5.23;;;1.70;;
46729;SDS011;32476;50.002;11.854;2024-02-14T03:53:10;5.77;;;1.90;;
46729;SDS011;32476;50.002;11.854;2024-02-14T03:55:36;2.90;;;1.87;;
46729;SDS011;32476;50.002;11.854;2024-02-14T03:58:04;3.93;;;1.57;;
46729;SDS011;32476;50.002;11.854;2024-02-14T04:00:31;5.17;;;1.80;;
46729;SDS011;32476;50.002;11.854;2024-02-14T04:02:57;5.60;;;2.23;;
46729;SDS011;32476;50.002;11.854;2024-02-14T04:05:26;2.63;;;1.67;;
46729;SDS011;32476;50.002;11.854;2024-02-14T04:07:54;2.87;;;2.10;;
46729;SDS011;32476;50.002;11.854;2024-02-14T04:10:21;3.67;;;1.87;;
46729;SDS011;32476;50.002;11.854;2024-02-14T04:12:49;4.57;;;2.13;;
46729;SDS011;32476;50.002;11.854;2024-02-14T04:15:15;3.90;;;1.93;;
46729;SDS011;32476;50.002;11.854;2024-02-14T04:17:41;4.47;;;2.10;;
46729;SDS011;32476;50.002;11.854;2024-02-14T04:20:09;4.93;;;2.40;;
46729;SDS011;32476;50.002;11.854;2024-02-14T04:22:35;4.50;;;2.07;;
46729;SDS011;32476;50.002;11.854;2024-02-14T04:25:01;15.43;;;2.27;;
46729;SDS011;32476;50.002;11.854;2024-02-14T04:27:28;4.50;;;1.70;;
46729;SDS011;32476;50.002;11.854;2024-02-14T04:29:54;4.57;;;1.83;;
46729;SDS011;32476;50.002;11.854;2024-02-14T04:32:20;4.73;;;2.07;;
46729;SDS011;32476;50.002;11.854;2024-02-14T04:34:48;5.27;;;2.10;;
46729;SDS011;32476;50.002;11.854;2024-02-14T04:37:14;4.43;;;1.90;;
46729;SDS011;32476;50.002;11.854;2024-02-14T04:39:40;4.73;;;1.90;;
46729;SDS011;32476;50.002;11.854;2024-02-14T04:42:08;3.53;;;1.70;;
46729;SDS011;32476;50.002;11.854;2024-02-14T04:44:34;4.63;;;1.70;;
46729;SDS011;32476;50.002;11.854;2024-02-14T04:47:01;3.57;;;1.80;;
46729;SDS011;32476;50.002;11.854;2024-02-14T04:49:28;4.87;;;1.60;;
46729;SDS011;32476;50.002;11.854;2024-02-14T04:51:54;4.17;;;1.90;;
46729;SDS011;32476;50.002;11.854;2024-02-14T04:54:20;4.63;;;2.03;;
46729;SDS011;32476;50.002;11.854;2024-02-14T04:56:48;5.33;;;1.97;;
46729;SDS011;32476;50.002;11.854;2024-02-14T04:59:14;5.40;;;1.90;;
46729;SDS011;32476;50.002;11.854;2024-02-14T05:01:40;4.60;;;2.07;;
46729;SDS011;32476;50.002;11.854;2024-02-14T05:04:07;9.70;;;1.87;;
46729;SDS011;32476;50.002;11.854;2024-02-14T05:06:33;5.70;;;1.70;;
46729;SDS011;32476;50.002;11.854;2024-02-14T05:08:59;2.37;;;1.57;;
46729;SDS011;32476;50.002;11.854;2024-02-14T05:11:27;5.90;;;1.90;;
46729;SDS011;32476;50.002;11.854;2024-02-14T05:13:53;7.50;;;1.60;;
46729;SDS011;32476;50.002;11.854;2024-02-14T05:16:19;5.20;;;1.90;;
46729;SDS011;32476;50.002;11.854;2024-02-14T05:18:47;2.93;;;1.97;;
46729;SDS011;32476;50.002;11.854;2024-02-14T05:21:14;3.23;;;1.70;;
46729;SDS011;32476;50.002;11.854;2024-02-14T05:23:40;9.27;;;1.90;;
46729;SDS011;32476;50.002;11.854;2024-02-14T05:26:07;4.17;;;1.90;;
46729;SDS011;32476;50.002;11.854;2024-02-14T05:28:33;6.70;;;2.10;;
46729;SDS011;32476;50.002;11.854;2024-02-14T05:31:01;5.70;;;2.50;;
46729;SDS011;32476;50.002;11.854;2024-02-14T05:33:30;5.30;;;2.20;;
46729;SDS011;32476;50.002;11.854;2024-02-14T05:35:56;4.93;;;2.20;;
46729;SDS011;32476;50.002;11.854;2024-02-14T05:38:22;6.87;;;2.37;;
46729;SDS011;32476;50.002;11.854;2024-02-14T05:40:50;6.13;;;2.23;;
46729;SDS011;32476;50.002;11.854;2024-02-14T05:43:16;4.87;;;2.03;;
46729;SDS011;32476;50.002;11.854;2024-02-14T05:45:45;3.43;;;2.27;;
46729;SDS011;32476;50.002;11.854;2024-02-14T05:48:13;4.10;;;2.27;;
46729;SDS011;32476;50.002;11.854;2024-02-14T05:50:39;5.60;;;2.20;;
46729;SDS011;32476;50.002;11.854;2024-02-14T05:53:05;5.23;;;1.80;;
46729;SDS011;32476;50.002;11.854;2024-02-14T05:55:33;5.20;;;2.20;;
46729;SDS011;32476;50.002;11.854;2024-02-14T05:57:59;9.50;;;2.87;;
46729;SDS011;32476;50.002;11.854;2024-02-14T06:00:25;6.43;;;2.53;;
46729;SDS011;32476;50.002;11.854;2024-02-14T06:02:53;4.60;;;2.50;;
46729;SDS011;32476;50.002;11.854;2024-02-14T06:05:19;6.80;;;2.50;;
46729;SDS011;32476;50.002;11.854;2024-02-14T06:07:45;5.03;;;2.40;;
46729;SDS011;32476;50.002;11.854;2024-02-14T06:10:13;4.13;;;2.60;;
46729;SDS011;32476;50.002;11.854;2024-02-14T06:12:39;8.67;;;2.50;;
46729;SDS011;32476;50.002;11.854;2024-02-14T06:15:15;6.63;;;3.33;;
46729;SDS011;32476;50.002;11.854;2024-02-14T06:17:43;5.77;;;2.70;;
46729;SDS011;32476;50.002;11.854;2024-02-14T06:20:09;6.03;;;2.50;;
46729;SDS011;32476;50.002;11.854;2024-02-14T06:22:37;6.57;;;2.70;;
46729;SDS011;32476;50.002;11.854;2024-02-14T06:25:05;6.80;;;2.60;;
46729;SDS011;32476;50.002;11.854;2024-02-14T06:27:31;5.07;;;2.73;;
46729;SDS011;32476;50.002;11.854;2024-02-14T06:29:57;4.67;;;2.10;;
46729;SDS011;32476;50.002;11.854;2024-02-14T06:32:26;5.23;;;2.40;;
46729;SDS011;32476;50.002;11.854;2024-02-14T06:34:52;11.33;;;2.40;;
46729;SDS011;32476;50.002;11.854;2024-02-14T06:37:18;7.40;;;2.77;;
46729;SDS011;32476;50.002;11.854;2024-02-14T06:39:45;7.63;;;2.60;;
46729;SDS011;32476;50.002;11.854;2024-02-14T06:42:13;5.40;;;2.67;;
46729;SDS011;32476;50.002;11.854;2024-02-14T06:44:40;13.27;;;2.87;;
46729;SDS011;32476;50.002;11.854;2024-02-14T06:47:07;7.43;;;2.50;;
46729;SDS011;32476;50.002;11.854;2024-02-14T06:49:33;8.27;;;2.40;;
46729;SDS011;32476;50.002;11.854;2024-02-14T06:51:59;6.23;;;2.10;;
46729;SDS011;32476;50.002;11.854;2024-02-14T06:54:26;7.97;;;2.60;;
46729;SDS011;32476;50.002;11.854;2024-02-14T06:56:52;6.37;;;2.57;;
46729;SDS011;32476;50.002;11.854;2024-02-14T06:59:19;4.30;;;2.10;;
46729;SDS011;32476;50.002;11.854;2024-02-14T07:01:46;4.57;;;1.80;;
46729;SDS011;32476;50.002;11.854;2024-02-14T07:04:12;6.23;;;2.00;;
46729;SDS011;32476;50.002;11.854;2024-02-14T07:06:38;6.60;;;2.60;;
46729;SDS011;32476;50.002;11.854;2024-02-14T07:09:06;4.50;;;1.90;;
46729;SDS011;32476;50.002;11.854;2024-02-14T07:11:32;6.00;;;2.23;;
46729;SDS011;32476;50.002;11.854;2024-02-14T07:13:58;4.40;;;1.90;;
46729;SDS011;32476;50.002;11.854;2024-02-14T07:16:26;4.57;;;2.17;;
46729;SDS011;32476;50.002;11.854;2024-02-14T07:18:51;3.07;;;1.87;;
46729;SDS011;32476;50.002;11.854;2024-02-14T07:21:18;2.83;;;1.97;;
46729;SDS011;32476;50.002;11.854;2024-02-14T07:23:45;5.30;;;2.03;;
46729;SDS011;32476;50.002;11.854;2024-02-14T07:26:12;4.00;;;1.90;;
46729;SDS011;32476;50.002;11.854;2024-02-14T07:28:38;5.27;;;2.03;;
46729;SDS011;32476;50.002;11.854;2024-02-14T07:31:05;9.67;;;2.23;;
46729;SDS011;32476;50.002;11.854;2024-02-14T07:33:31;6.00;;;2.10;;
46729;SDS011;32476;50.002;11.854;2024-02-14T07:35:57;4.10;;;2.27;;
46729;SDS011;32476;50.002;11.854;2024-02-14T07:38:25;8.13;;;2.37;;
46729;SDS011;32476;50.002;11.854;2024-02-14T07:40:51;6.83;;;2.07;;
46729;SDS011;32476;50.002;11.854;2024-02-14T07:43:18;6.27;;;2.13;;
46729;SDS011;32476;50.002;11.854;2024-02-14T07:45:45;6.40;;;3.23;;
46729;SDS011;32476;50.002;11.854;2024-02-14T07:48:11;6.60;;;2.30;;
46729;SDS011;32476;50.002;11.854;2024-02-14T07:50:37;7.50;;;2.37;;
46729;SDS011;32476;50.002;11.854;2024-02-14T07:53:04;6.03;;;2.00;;
46729;SDS011;32476;50.002;11.854;2024-02-14T07:55:31;7.13;;;2.43;;
46729;SDS011;32476;50.002;11.854;2024-02-14T07:57:57;3.83;;;2.07;;
46729;SDS011;32476;50.002;11.854;2024-02-14T08:00:26;7.17;;;3.13;;
46729;SDS011;32476;50.002;11.854;2024-02-14T08:02:52;6.50;;;2.30;;
46729;SDS011;32476;50.002;11.854;2024-02-14T08:05:18;6.63;;;2.20;;
46729;SDS011;32476;50.002;11.854;2024-02-14T08:07:46;6.80;;;2.70;;
46729;SDS011;32476;50.002;11.854;2024-02-14T08:10:12;7.30;;;2.70;;
46729;SDS011;32476;50.002;11.854;2024-02-14T08:12:38;7.23;;;3.47;;
46729;SDS011;32476;50.002;11.854;2024-02-14T08:15:06;5.03;;;2.53;;
46729;SDS011;32476;50.002;11.854;2024-02-14T08:17:32;8.73;;;2.20;;
46729;SDS011;32476;50.002;11.854;2024-02-14T08:19:59;10.03;;;2.30;;
46729;SDS011;32476;50.002;11.854;2024-02-14T08:22:27;7.17;;;2.40;;
46729;SDS011;32476;50.002;11.854;2024-02-14T08:24:53;5.87;;;2.60;;
46729;SDS011;32476;50.002;11.854;2024-02-14T08:27:19;3.47;;;2.17;;
46729;SDS011;32476;50.002;11.854;2024-02-14T08:29:46;7.30;;;2.27;;
46729;SDS011;32476;50.002;11.854;2024-02-14T08:32:12;6.93;;;2.47;;
46729;SDS011;32476;50.002;11.854;2024-02-14T08:34:38;6.30;;;1.90;;
46729;SDS011;32476;50.002;11.854;2024-02-14T08:37:05;10.03;;;2.20;;
46729;SDS011;32476;50.002;11.854;2024-02-14T08:39:33;15.73;;;11.87;;
46729;SDS011;32476;50.002;11.854;2024-02-14T08:41:59;7.57;;;3.53;;
46729;SDS011;32476;50.002;11.854;2024-02-14T08:44:29;5.30;;;2.47;;
46729;SDS011;32476;50.002;11.854;2024-02-14T08:46:55;7.17;;;2.10;;
46729;SDS011;32476;50.002;11.854;2024-02-14T08:49:21;6.33;;;2.80;;
46729;SDS011;32476;50.002;11.854;2024-02-14T08:51:49;5.27;;;2.90;;
46729;SDS011;32476;50.002;11.854;2024-02-14T08:54:15;11.10;;;2.90;;
46729;SDS011;32476;50.002;11.854;2024-02-14T08:56:41;9.10;;;2.40;;
46729;SDS011;32476;50.002;11.854;2024-02-14T08:59:09;7.03;;;2.20;;
46729;SDS011;32476;50.002;11.854;2024-02-14T09:01:37;5.53;;;2.43;;
46729;SDS011;32476;50.002;11.854;2024-02-14T09:04:03;6.57;;;2.40;;
46729;SDS011;32476;50.002;11.854;2024-02-14T09:06:31;7.53;;;2.67;;
46729;SDS011;32476;50.002;11.854;2024-02-14T09:08:58;5.60;;;2.40;;
46729;SDS011;32476;50.002;11.854;2024-02-14T09:11:24;4.67;;;2.30;;
46729;SDS011;32476;50.002;11.854;2024-02-14T09:13:52;4.40;;;2.23;;
46729;SDS011;32476;50.002;11.854;2024-02-14T09:16:21;7.03;;;2.80;;
46729;SDS011;32476;50.002;11.854;2024-02-14T09:18:48;7.73;;;4.60;;
46729;SDS011;32476;50.002;11.854;2024-02-14T09:21:16;13.50;;;2.90;;
46729;SDS011;32476;50.002;11.854;2024-02-14T09:23:42;8.77;;;3.27;;
46729;SDS011;32476;50.002;11.854;2024-02-14T09:26:10;8.77;;;3.43;;
46729;SDS011;32476;50.002;11.854;2024-02-14T09:28:39;7.23;;;2.80;;
46729;SDS011;32476;50.002;11.854;2024-02-14T09:31:06;8.40;;;4.17;;
46729;SDS011;32476;50.002;11.854;2024-02-14T09:33:35;3.40;;;2.60;;
46729;SDS011;32476;50.002;11.854;2024-02-14T09:36:03;4.50;;;2.70;;
46729;SDS011;32476;50.002;11.854;2024-02-14T09:38:30;9.17;;;3.60;;
46729;SDS011;32476;50.002;11.854;2024-02-14T09:41:05;6.73;;;2.87;;
46729;SDS011;32476;50.002;11.854;2024-02-14T09:43:44;9.60;;;2.80;;
46729;SDS011;32476;50.002;11.854;2024-02-14T09:46:14;7.53;;;2.73;;
46729;SDS011;32476;50.002;11.854;2024-02-14T09:48:46;6.20;;;3.00;;
46729;SDS011;32476;50.002;11.854;2024-02-14T09:51:14;6.77;;;2.90;;
46729;SDS011;32476;50.002;11.854;2024-02-14T09:53:41;6.57;;;3.10;;
46729;SDS011;32476;50.002;11.854;2024-02-14T09:56:08;5.40;;;3.43;;
46729;SDS011;32476;50.002;11.854;2024-02-14T09:58:39;8.30;;;3.10;;
46729;SDS011;32476;50.002;11.854;2024-02-14T10:01:06;9.13;;;3.10;;
46729;SDS011;32476;50.002;11.854;2024-02-14T10:03:32;7.90;;;3.20;;
46729;SDS011;32476;50.002;11.854;2024-02-14T10:06:02;8.07;;;3.50;;
46729;SDS011;32476;50.002;11.854;2024-02-14T10:08:29;4.13;;;3.07;;
46729;SDS011;32476;50.002;11.854;2024-02-14T10:10:56;4.63;;;2.80;;
46729;SDS011;32476;50.002;11.854;2024-02-14T10:13:28;5.60;;;2.20;;
46729;SDS011;32476;50.002;11.854;2024-02-14T10:15:56;3.40;;;2.50;;
46729;SDS011;32476;50.002;11.854;2024-02-14T10:18:22;6.83;;;2.83;;
46729;SDS011;32476;50.002;11.854;2024-02-14T10:20:54;4.80;;;3.17;;
46729;SDS011;32476;50.002;11.854;2024-02-14T10:23:21;4.13;;;3.13;;
46729;SDS011;32476;50.002;11.854;2024-02-14T10:25:52;4.67;;;2.97;;
46729;SDS011;32476;50.002;11.854;2024-02-14T10:28:22;8.37;;;3.20;;
46729;SDS011;32476;50.002;11.854;2024-02-14T10:30:48;6.40;;;3.20;;
46729;SDS011;32476;50.002;11.854;2024-02-14T10:33:18;7.30;;;3.23;;
46729;SDS011;32476;50.002;11.854;2024-02-14T10:35:49;6.37;;;3.30;;
46729;SDS011;32476;50.002;11.854;2024-02-14T10:38:16;7.73;;;3.60;;
46729;SDS011;32476;50.002;11.854;2024-02-14T10:40:43;11.43;;;3.33;;
46729;SDS011;32476;50.002;11.854;2024-02-14T10:43:14;4.63;;;3.27;;
46729;SDS011;32476;50.002;11.854;2024-02-14T10:45:40;9.77;;;3.60;;
46729;SDS011;32476;50.002;11.854;2024-02-14T10:48:08;5.07;;;3.60;;
46729;SDS011;32476;50.002;11.854;2024-02-14T10:50:40;6.83;;;4.10;;
46729;SDS011;32476;50.002;11.854;2024-02-14T10:53:06;5.03;;;3.63;;
46729;SDS011;32476;50.002;11.854;2024-02-14T10:55:48;7.93;;;4.13;;
46729;SDS011;32476;50.002;11.854;2024-02-14T10:58:17;11.67;;;3.27;;
46729;SDS011;32476;50.002;11.854;2024-02-14T11:00:45;5.93;;;3.83;;
46729;SDS011;32476;50.002;11.854;2024-02-14T11:03:12;8.37;;;4.43;;
46729;SDS011;32476;50.002;11.854;2024-02-14T11:05:47;7.20;;;4.70;;
46729;SDS011;32476;50.002;11.854;2024-02-14T11:08:19;7.97;;;4.03;;
46729;SDS011;32476;50.002;11.854;2024-02-14T11:10:53;6.33;;;4.10;;
46729;SDS011;32476;50.002;11.854;2024-02-14T11:13:26;9.80;;;4.23;;
46729;SDS011;32476;50.002;11.854;2024-02-14T11:16:01;10.17;;;4.47;;
46729;SDS011;32476;50.002;11.854;2024-02-14T11:18:31;8.23;;;4.10;;
46729;SDS011;32476;50.002;11.854;2024-02-14T11:20:59;9.03;;;4.23;;
46729;SDS011;32476;50.002;11.854;2024-02-14T11:23:31;8.90;;;4.70;;
46729;SDS011;32476;50.002;11.854;2024-02-14T11:26:00;8.67;;;4.03;;
46729;SDS011;32476;50.002;11.854;2024-02-14T11:28:36;7.97;;;3.80;;
46729;SDS011;32476;50.002;11.854;2024-02-14T11:31:07;9.37;;;4.57;;
46729;SDS011;32476;50.002;11.854;2024-02-14T11:33:36;7.67;;;4.40;;
46729;SDS011;32476;50.002;11.854;2024-02-14T11:36:09;7.23;;;3.90;;
46729;SDS011;32476;50.002;11.854;2024-02-14T11:38:39;8.90;;;3.80;;
46729;SDS011;32476;50.002;11.854;2024-02-14T11:41:06;7.40;;;3.90;;
46729;SDS011;32476;50.002;11.854;2024-02-14T11:43:32;7.93;;;3.97;;
46729;SDS011;32476;50.002;11.854;2024-02-14T11:45:59;10.00;;;3.77;;
46729;SDS011;32476;50.002;11.854;2024-02-14T11:48:25;7.97;;;3.90;;
46729;SDS011;32476;50.002;11.854;2024-02-14T11:50:53;6.47;;;4.57;;
46729;SDS011;32476;50.002;11.854;2024-02-14T11:53:22;9.17;;;3.93;;
46729;SDS011;32476;50.002;11.854;2024-02-14T11:55:48;6.37;;;3.83;;
46729;SDS011;32476;50.002;11.854;2024-02-14T11:58:15;10.03;;;4.20;;
46729;SDS011;32476;50.002;11.854;2024-02-14T12:00:44;7.97;;;3.60;;
46729;SDS011;32476;50.002;11.854;2024-02-14T12:03:12;7.07;;;3.90;;
46729;SDS011;32476;50.002;11.854;2024-02-14T12:05:45;6.03;;;4.27;;
46729;SDS011;32476;50.002;11.854;2024-02-14T12:08:13;8.13;;;4.23;;
46729;SDS011;32476;50.002;11.854;2024-02-14T12:10:42;7.07;;;4.27;;
46729;SDS011;32476;50.002;11.854;2024-02-14T12:13:13;6.20;;;4.37;;
46729;SDS011;32476;50.002;11.854;2024-02-14T12:15:44;8.30;;;4.23;;
46729;SDS011;32476;50.002;11.854;2024-02-14T12:18:13;6.73;;;3.70;;
46729;SDS011;32476;50.002;11.854;2024-02-14T12:20:41;6.90;;;3.87;;
46729;SDS011;32476;50.002;11.854;2024-02-14T12:23:13;5.97;;;3.73;;
46729;SDS011;32476;50.002;11.854;2024-02-14T12:25:45;7.60;;;3.73;;
46729;SDS011;32476;50.002;11.854;2024-02-14T12:28:18;7.07;;;3.80;;
46729;SDS011;32476;50.002;11.854;2024-02-14T12:30:46;6.90;;;3.80;;
46729;SDS011;32476;50.002;11.854;2024-02-14T12:33:23;7.73;;;3.47;;
46729;SDS011;32476;50.002;11.854;2024-02-14T12:35:53;7.90;;;3.90;;
46729;SDS011;32476;50.002;11.854;2024-02-14T12:38:21;5.87;;;3.90;;
46729;SDS011;32476;50.002;11.854;2024-02-14T12:40:48;9.20;;;4.20;;
46729;SDS011;32476;50.002;11.854;2024-02-14T12:43:16;6.30;;;4.33;;
46729;SDS011;32476;50.002;11.854;2024-02-14T12:45:42;6.17;;;4.03;;
46729;SDS011;32476;50.002;11.854;2024-02-14T12:48:09;6.80;;;4.23;;
46729;SDS011;32476;50.002;11.854;2024-02-14T12:50:39;8.17;;;4.53;;
46729;SDS011;32476;50.002;11.854;2024-02-14T12:53:06;6.40;;;4.50;;
46729;SDS011;32476;50.002;11.854;2024-02-14T12:55:33;10.10;;;4.30;;
46729;SDS011;32476;50.002;11.854;2024-02-14T12:58:01;7.37;;;4.07;;
46729;SDS011;32476;50.002;11.854;2024-02-14T13:00:27;8.70;;;4.73;;
46729;SDS011;32476;50.002;11.854;2024-02-14T13:02:54;7.37;;;4.07;;
46729;SDS011;32476;50.002;11.854;2024-02-14T13:05:22;10.00;;;4.70;;
46729;SDS011;32476;50.002;11.854;2024-02-14T13:07:48;6.10;;;4.17;;
46729;SDS011;32476;50.002;11.854;2024-02-14T13:10:14;8.63;;;5.07;;
46729;SDS011;32476;50.002;11.854;2024-02-14T13:12:49;9.77;;;4.97;;
46729;SDS011;32476;50.002;11.854;2024-02-14T13:15:16;7.33;;;4.87;;
46729;SDS011;32476;50.002;11.854;2024-02-14T13:17:43;8.20;;;5.00;;
46729;SDS011;32476;50.002;11.854;2024-02-14T13:20:10;7.87;;;4.73;;
46729;SDS011;32476;50.002;11.854;2024-02-14T13:22:36;8.20;;;4.57;;
46729;SDS011;32476;50.002;11.854;2024-02-14T13:25:04;6.80;;;4.87;;
46729;SDS011;32476;50.002;11.854;2024-02-14T13:27:31;7.63;;;4.77;;
46729;SDS011;32476;50.002;11.854;2024-02-14T13:29:57;10.40;;;5.00;;
46729;SDS011;32476;50.002;11.854;2024-02-14T13:32:24;11.57;;;4.43;;
46729;SDS011;32476;50.002;11.854;2024-02-14T13:34:50;8.57;;;4.53;;
46729;SDS011;32476;50.002;11.854;2024-02-14T13:37:16;7.43;;;4.37;;
46729;SDS011;32476;50.002;11.854;2024-02-14T13:39:43;5.87;;;4.53;;
46729;SDS011;32476;50.002;11.854;2024-02-14T13:42:09;5.20;;;4.20;;
46729;SDS011;32476;50.002;11.854;2024-02-14T13:44:35;8.50;;;4.23;;
46729;SDS011;32476;50.002;11.854;2024-02-14T13:47:04;7.37;;;4.60;;
46729;SDS011;32476;50.002;11.854;2024-02-14T13:49:30;7.53;;;4.43;;
46729;SDS011;32476;50.002;11.854;2024-02-14T13:51:56;8.00;;;5.17;;
46729;SDS011;32476;50.002;11.854;2024-02-14T13:54:24;9.13;;;4.80;;
46729;SDS011;32476;50.002;11.854;2024-02-14T13:56:51;7.10;;;4.90;;
46729;SDS011;32476;50.002;11.854;2024-02-14T13:59:17;9.03;;;4.77;;
46729;SDS011;32476;50.002;11.854;2024-02-14T14:01:45;8.53;;;6.00;;
46729;SDS011;32476;50.002;11.854;2024-02-14T14:04:12;10.37;;;4.97;;
46729;SDS011;32476;50.002;11.854;2024-02-14T14:06:38;5.90;;;4.10;;
46729;SDS011;32476;50.002;11.854;2024-02-14T14:09:06;9.13;;;5.07;;
46729;SDS011;32476;50.002;11.854;2024-02-14T14:11:35;8.07;;;4.87;;
46729;SDS011;32476;50.002;11.854;2024-02-14T14:14:01;7.93;;;5.40;;
46729;SDS011;32476;50.002;11.854;2024-02-14T14:16:29;9.73;;;5.57;;
46729;SDS011;32476;50.002;11.854;2024-02-14T14:18:54;11.23;;;4.93;;
46729;SDS011;32476;50.002;11.854;2024-02-14T14:21:22;7.97;;;5.13;;
46729;SDS011;32476;50.002;11.854;2024-02-14T14:23:49;8.80;;;4.80;;
46729;SDS011;32476;50.002;11.854;2024-02-14T14:26:15;7.60;;;4.17;;
46729;SDS011;32476;50.002;11.854;2024-02-14T14:28:42;9.23;;;4.87;;
46729;SDS011;32476;50.002;11.854;2024-02-14T14:31:09;7.63;;;4.17;;
46729;SDS011;32476;50.002;11.854;2024-02-14T14:33:36;7.97;;;4.77;;